createdAt,value
2023-11-12T00:00:06.284Z,56.79
2023-11-12T00:01:06.341Z,54.36
2023-11-12T00:02:06.282Z,55.72
2023-11-12T00:03:06.386Z,54.78
2023-11-12T00:04:06.259Z,52.49
2023-11-12T00:05:06.299Z,53.33
2023-11-12T00:06:06.240Z,54.76
2023-11-12T00:07:06.240Z,55.34
2023-11-12T00:08:06.289Z,54.92
2023-11-12T00:09:06.257Z,52.91
2023-11-12T00:10:06.211Z,52.78
2023-11-12T00:11:06.283Z,55.07
2023-11-12T00:12:06.208Z,54.89
2023-11-12T00:13:06.199Z,52.84
2023-11-12T00:14:06.272Z,54.88
2023-11-12T00:15:06.198Z,58.48
2023-11-12T00:16:06.201Z,52.62
2023-11-12T00:17:06.240Z,54.57
2023-11-12T00:18:06.187Z,54.21
2023-11-12T00:19:06.183Z,54.55
2023-11-12T00:20:06.169Z,57.27
2023-11-12T00:21:06.192Z,49.85
2023-11-12T00:22:06.124Z,51.89
2023-11-12T00:23:06.184Z,54.06
2023-11-12T00:24:06.174Z,55.34
2023-11-12T00:25:06.135Z,55.88
2023-11-12T00:26:06.143Z,56.02
2023-11-12T00:27:06.130Z,51.26
2023-11-12T00:28:06.111Z,50.59
2023-11-12T00:29:06.107Z,55.19
2023-11-12T00:30:06.066Z,55.23
2023-11-12T00:31:06.097Z,54.48
2023-11-12T00:32:06.180Z,55.90
2023-11-12T00:33:06.196Z,54.03
2023-11-12T00:34:06.056Z,53.53
2023-11-12T00:35:06.173Z,55.20
2023-11-12T00:36:06.032Z,51.35
2023-11-12T00:37:06.065Z,53.50
2023-11-12T00:38:06.102Z,54.17
2023-11-12T00:39:06.036Z,54.47
2023-11-12T00:40:06.027Z,52.31
2023-11-12T00:41:06.070Z,53.71
2023-11-12T00:42:06.034Z,47.73
2023-11-12T00:43:06.058Z,52.80
2023-11-12T00:44:06.032Z,51.66
2023-11-12T00:45:06.025Z,54.75
2023-11-12T00:46:05.991Z,47.95
2023-11-12T00:47:06.089Z,50.93
2023-11-12T00:48:06.003Z,48.80
2023-11-12T00:49:06.000Z,53.53
2023-11-12T00:50:05.963Z,50.58
2023-11-12T00:51:05.964Z,54.41
2023-11-12T00:52:08.970Z,54.62
2023-11-12T00:53:05.982Z,56.29
2023-11-12T00:54:05.919Z,56.18
2023-11-12T00:55:05.949Z,53.72
2023-11-12T00:56:05.982Z,52.55
2023-11-12T00:57:05.918Z,56.24
2023-11-12T00:58:05.897Z,51.99
2023-11-12T00:59:05.939Z,54.38
2023-11-12T01:00:05.910Z,55.76
2023-11-12T01:01:05.997Z,54.85
2023-11-12T01:02:06.045Z,54.71
2023-11-12T01:03:05.976Z,55.80
2023-11-12T01:04:05.888Z,56.62
2023-11-12T01:05:05.921Z,50.17
2023-11-12T01:06:05.870Z,50.51
2023-11-12T01:07:05.861Z,52.40
2023-11-12T01:08:05.891Z,51.51
2023-11-12T01:09:05.841Z,51.45
2023-11-12T01:10:05.829Z,52.08
2023-11-12T01:11:05.869Z,50.36
2023-11-12T01:12:05.843Z,54.54
2023-11-12T01:13:05.815Z,53.63
2023-11-12T01:14:05.797Z,53.60
2023-11-12T01:15:05.806Z,49.73
2023-11-12T01:16:05.800Z,54.46
2023-11-12T01:17:05.792Z,56.58
2023-11-12T01:18:05.875Z,48.91
2023-11-12T01:19:05.782Z,50.27
2023-11-12T01:20:05.775Z,52.37
2023-11-12T01:21:05.849Z,53.96
2023-11-12T01:22:05.746Z,50.33
2023-11-12T01:23:05.757Z,48.72
2023-11-12T01:24:05.789Z,48.23
2023-11-12T01:25:05.762Z,50.70
2023-11-12T01:26:05.740Z,51.65
2023-11-12T01:27:05.759Z,55.11
2023-11-12T01:28:05.714Z,51.38
2023-11-12T01:29:05.736Z,52.81
2023-11-12T01:30:05.723Z,53.06
2023-11-12T01:31:05.758Z,51.33
2023-11-12T01:32:05.708Z,51.79
2023-11-12T01:33:05.747Z,53.72
2023-11-12T01:34:05.680Z,47.11
2023-11-12T01:35:05.693Z,54.04
2023-11-12T01:36:05.690Z,46.86
2023-11-12T01:37:05.765Z,53.62
2023-11-12T01:38:05.651Z,51.53
2023-11-12T01:39:05.686Z,54.89
2023-11-12T01:40:05.655Z,53.39
2023-11-12T01:41:05.647Z,52.56
2023-11-12T01:42:05.642Z,52.46
2023-11-12T01:43:05.669Z,50.33
2023-11-12T01:44:05.614Z,55.16
2023-11-12T01:45:05.650Z,53.97
2023-11-12T01:46:05.651Z,53.71
2023-11-12T01:47:05.626Z,53.55
2023-11-12T01:48:05.697Z,55.49
2023-11-12T01:49:05.615Z,48.77
2023-11-12T01:50:05.594Z,54.25
2023-11-12T01:51:05.837Z,47.16
2023-11-12T01:52:05.571Z,49.23
2023-11-12T01:53:05.577Z,49.09
2023-11-12T01:54:05.596Z,49.28
2023-11-12T01:55:05.570Z,49.99
2023-11-12T01:56:05.568Z,52.96
2023-11-12T01:57:05.605Z,47.59
2023-11-12T01:58:05.626Z,49.14
2023-11-12T01:59:05.571Z,50.35
2023-11-12T02:00:05.555Z,53.40
2023-11-12T02:01:05.529Z,47.98
2023-11-12T02:02:05.509Z,51.53
2023-11-12T02:03:05.605Z,48.00
2023-11-12T02:04:05.604Z,45.51
2023-11-12T02:05:05.506Z,47.50
2023-11-12T02:06:05.499Z,50.50
2023-11-12T02:07:05.507Z,48.38
2023-11-12T02:08:05.470Z,46.41
2023-11-12T02:09:05.514Z,50.87
2023-11-12T02:10:05.505Z,51.98
2023-11-12T02:11:05.467Z,53.95
2023-11-12T02:12:05.525Z,48.91
2023-11-12T02:13:05.462Z,47.58
2023-11-12T02:14:05.442Z,56.09
2023-11-12T02:15:05.516Z,57.00
2023-11-12T02:16:05.505Z,54.29
2023-11-12T02:17:05.440Z,50.60
2023-11-12T02:18:05.595Z,54.14
2023-11-12T02:19:05.448Z,54.70
2023-11-12T02:20:05.435Z,56.43
2023-11-12T02:21:05.556Z,54.37
2023-11-12T02:22:05.414Z,49.17
2023-11-12T02:23:05.404Z,53.74
2023-11-12T02:24:05.398Z,50.86
2023-11-12T02:25:05.418Z,50.80
2023-11-12T02:26:05.398Z,52.39
2023-11-12T02:27:05.461Z,51.46
2023-11-12T02:28:05.391Z,50.92
2023-11-12T02:29:05.373Z,48.50
2023-11-12T02:30:05.432Z,56.63
2023-11-12T02:31:05.611Z,54.50
2023-11-12T02:32:05.418Z,50.20
2023-11-12T02:33:05.568Z,53.17
2023-11-12T02:34:05.436Z,54.60
2023-11-12T02:35:05.389Z,50.70
2023-11-12T02:36:05.535Z,47.39
2023-11-12T02:37:05.387Z,56.15
2023-11-12T02:38:05.316Z,50.59
2023-11-12T02:39:05.426Z,50.57
2023-11-12T02:40:05.307Z,55.16
2023-11-12T02:41:05.313Z,50.63
2023-11-12T02:42:05.421Z,50.69
2023-11-12T02:43:05.303Z,50.80
2023-11-12T02:44:05.265Z,44.93
2023-11-12T02:45:05.369Z,46.97
2023-11-12T02:46:05.366Z,48.40
2023-11-12T02:47:05.274Z,49.68
2023-11-12T02:48:05.334Z,53.08
2023-11-12T02:49:05.264Z,50.20
2023-11-12T02:50:05.263Z,51.39
2023-11-12T02:51:05.317Z,47.75
2023-11-12T02:52:05.241Z,49.31
2023-11-12T02:53:05.242Z,48.15
2023-11-12T02:54:05.253Z,52.27
2023-11-12T02:55:05.246Z,50.97
2023-11-12T02:56:05.232Z,52.29
2023-11-12T02:57:05.290Z,47.73
2023-11-12T02:58:05.198Z,53.65
2023-11-12T02:59:05.212Z,54.54
2023-11-12T03:00:05.233Z,49.67
2023-11-12T03:01:05.278Z,54.67
2023-11-12T03:02:05.186Z,51.87
2023-11-12T03:03:05.326Z,49.46
2023-11-12T03:04:05.210Z,50.71
2023-11-12T03:05:05.189Z,56.46
2023-11-12T03:06:05.175Z,51.45
2023-11-12T03:07:05.170Z,50.06
2023-11-12T03:08:05.137Z,46.98
2023-11-12T03:09:05.183Z,52.96
2023-11-12T03:10:05.145Z,52.90
2023-11-12T03:11:05.133Z,50.74
2023-11-12T03:12:05.227Z,50.55
2023-11-12T03:13:05.118Z,53.43
2023-11-12T03:14:05.096Z,47.45
2023-11-12T03:15:05.161Z,50.70
2023-11-12T03:16:05.089Z,48.80
2023-11-12T03:17:05.103Z,48.48
2023-11-12T03:18:05.214Z,49.52
2023-11-12T03:19:05.093Z,50.86
2023-11-12T03:20:05.060Z,48.40
2023-11-12T03:21:05.102Z,52.58
2023-11-12T03:22:05.055Z,49.06
2023-11-12T03:23:05.063Z,48.40
2023-11-12T03:24:05.148Z,47.08
2023-11-12T03:25:05.065Z,50.53
2023-11-12T03:26:05.048Z,50.36
2023-11-12T03:27:05.074Z,45.92
2023-11-12T03:28:05.025Z,53.16
2023-11-12T03:29:05.032Z,49.82
2023-11-12T03:30:05.184Z,51.80
2023-11-12T03:31:05.018Z,46.91
2023-11-12T03:32:05.013Z,52.67
2023-11-12T03:33:05.074Z,54.36
2023-11-12T03:34:04.984Z,50.68
2023-11-12T03:35:05.004Z,49.62
2023-11-12T03:36:04.976Z,50.48
2023-11-12T03:37:04.974Z,47.34
2023-11-12T03:38:04.968Z,49.38
2023-11-12T03:39:04.960Z,49.14
2023-11-12T03:40:04.939Z,52.66
2023-11-12T03:41:04.968Z,49.46
2023-11-12T03:42:04.943Z,52.10
2023-11-12T03:43:04.948Z,49.73
2023-11-12T03:44:04.912Z,51.66
2023-11-12T03:45:04.927Z,52.78
2023-11-12T03:46:04.907Z,52.91
2023-11-12T03:47:04.935Z,49.42
2023-11-12T03:48:04.958Z,54.49
2023-11-12T03:49:04.900Z,54.88
2023-11-12T03:50:04.881Z,49.89
2023-11-12T03:51:04.899Z,50.44
2023-11-12T03:52:04.896Z,52.57
2023-11-12T03:53:04.895Z,50.95
2023-11-12T03:54:04.878Z,52.60
2023-11-12T03:55:04.892Z,52.95
2023-11-12T03:56:04.879Z,52.78
2023-11-12T03:57:04.895Z,49.09
2023-11-12T03:58:04.866Z,50.17
2023-11-12T03:59:04.845Z,49.20
2023-11-12T04:00:04.824Z,53.38
2023-11-12T04:01:04.841Z,50.39
2023-11-12T04:02:04.908Z,50.37
2023-11-12T04:03:04.961Z,49.98
2023-11-12T04:04:04.957Z,52.10
2023-11-12T04:05:04.972Z,52.89
2023-11-12T04:06:04.808Z,50.70
2023-11-12T04:07:04.815Z,54.43
2023-11-12T04:08:04.791Z,51.33
2023-11-12T04:09:04.819Z,46.88
2023-11-12T04:10:04.773Z,54.59
2023-11-12T04:11:04.794Z,52.95
2023-11-12T04:12:04.764Z,52.83
2023-11-12T04:13:04.772Z,49.88
2023-11-12T04:14:04.794Z,49.21
2023-11-12T04:15:04.769Z,54.44
2023-11-12T04:16:04.753Z,53.17
2023-11-12T04:17:04.747Z,55.59
2023-11-12T04:18:04.737Z,54.44
2023-11-12T04:19:04.764Z,56.18
2023-11-12T04:20:04.760Z,49.89
2023-11-12T04:21:04.745Z,53.46
2023-11-12T04:22:04.712Z,51.08
2023-11-12T04:23:04.715Z,51.87
2023-11-12T04:24:04.703Z,53.07
2023-11-12T04:25:04.725Z,56.94
2023-11-12T04:26:04.682Z,54.50
2023-11-12T04:27:04.698Z,51.72
2023-11-12T04:28:04.691Z,55.14
2023-11-12T04:29:04.677Z,53.26
2023-11-12T04:30:04.669Z,53.78
2023-11-12T04:31:04.668Z,53.24
2023-11-12T04:32:04.653Z,51.10
2023-11-12T04:33:04.692Z,55.18
2023-11-12T04:34:04.702Z,53.56
2023-11-12T04:35:04.668Z,52.40
2023-11-12T04:36:04.618Z,51.80
2023-11-12T04:37:04.636Z,52.04
2023-11-12T04:38:04.603Z,53.19
2023-11-12T04:39:04.640Z,55.48
2023-11-12T04:40:04.637Z,53.87
2023-11-12T04:41:04.612Z,50.09
2023-11-12T04:42:04.589Z,51.28
2023-11-12T04:43:04.607Z,54.22
2023-11-12T04:44:04.581Z,48.38
2023-11-12T04:45:04.575Z,52.96
2023-11-12T04:46:04.678Z,55.97
2023-11-12T04:47:04.589Z,48.19
2023-11-12T04:48:04.637Z,53.06
2023-11-12T04:49:04.556Z,54.97
2023-11-12T04:50:04.535Z,53.26
2023-11-12T04:51:04.551Z,51.92
2023-11-12T04:52:04.532Z,50.30
2023-11-12T04:53:04.555Z,51.36
2023-11-12T04:54:04.519Z,53.72
2023-11-12T04:55:04.527Z,52.68
2023-11-12T04:56:04.512Z,51.26
2023-11-12T04:57:04.511Z,54.41
2023-11-12T04:58:04.489Z,50.78
2023-11-12T04:59:04.524Z,55.79
2023-11-12T05:00:04.490Z,52.31
2023-11-12T05:01:04.537Z,47.94
2023-11-12T05:02:04.521Z,54.17
2023-11-12T05:03:04.518Z,51.50
2023-11-12T05:04:04.586Z,49.56
2023-11-12T05:05:04.493Z,54.37
2023-11-12T05:06:04.447Z,49.55
2023-11-12T05:07:04.481Z,53.44
2023-11-12T05:08:04.452Z,53.84
2023-11-12T05:09:04.457Z,53.42
2023-11-12T05:10:04.427Z,53.75
2023-11-12T05:11:04.462Z,51.69
2023-11-12T05:12:04.436Z,51.10
2023-11-12T05:13:04.471Z,51.96
2023-11-12T05:14:04.410Z,54.59
2023-11-12T05:15:04.414Z,52.62
2023-11-12T05:16:04.422Z,56.34
2023-11-12T05:17:04.417Z,48.66
2023-11-12T05:18:04.424Z,51.29
2023-11-12T05:19:04.398Z,52.13
2023-11-12T05:20:04.377Z,53.39
2023-11-12T05:21:04.406Z,54.61
2023-11-12T05:22:04.360Z,50.52
2023-11-12T05:23:04.378Z,53.00
2023-11-12T05:24:04.349Z,54.87
2023-11-12T05:25:04.370Z,49.72
2023-11-12T05:26:04.354Z,51.97
2023-11-12T05:27:04.377Z,52.13
2023-11-12T05:28:04.355Z,53.89
2023-11-12T05:29:04.343Z,53.01
2023-11-12T05:30:04.334Z,50.93
2023-11-12T05:31:04.412Z,54.19
2023-11-12T05:32:04.304Z,54.15
2023-11-12T05:33:04.499Z,49.20
2023-11-12T05:34:04.312Z,55.20
2023-11-12T05:35:04.319Z,53.55
2023-11-12T05:36:04.349Z,55.02
2023-11-12T05:37:04.309Z,51.56
2023-11-12T05:38:04.303Z,53.03
2023-11-12T05:39:04.282Z,55.05
2023-11-12T05:40:04.256Z,50.42
2023-11-12T05:41:04.281Z,53.22
2023-11-12T05:42:04.249Z,54.65
2023-11-12T05:43:04.267Z,53.45
2023-11-12T05:44:04.253Z,48.42
2023-11-12T05:45:04.263Z,53.18
2023-11-12T05:46:04.271Z,53.55
2023-11-12T05:47:04.240Z,52.96
2023-11-12T05:48:04.228Z,54.71
2023-11-12T05:49:04.240Z,51.38
2023-11-12T05:50:04.217Z,53.86
2023-11-12T05:51:04.229Z,51.79
2023-11-12T05:52:04.187Z,48.70
2023-11-12T05:53:04.200Z,50.79
2023-11-12T05:54:04.181Z,53.72
2023-11-12T05:55:04.188Z,58.23
2023-11-12T05:56:04.159Z,54.08
2023-11-12T05:57:04.190Z,55.75
2023-11-12T05:58:04.172Z,54.62
2023-11-12T05:59:04.210Z,54.40
2023-11-12T06:00:04.188Z,54.34
2023-11-12T06:01:04.150Z,54.70
2023-11-12T06:02:04.195Z,51.13
2023-11-12T06:03:04.204Z,49.37
2023-11-12T06:04:04.204Z,54.53
2023-11-12T06:05:04.121Z,49.06
2023-11-12T06:06:04.143Z,52.60
2023-11-12T06:07:04.129Z,50.44
2023-11-12T06:08:04.118Z,50.82
2023-11-12T06:09:04.123Z,52.70
2023-11-12T06:10:04.099Z,52.49
2023-11-12T06:11:04.091Z,53.76
2023-11-12T06:12:04.075Z,52.18
2023-11-12T06:13:04.076Z,52.89
2023-11-12T06:14:04.082Z,52.60
2023-11-12T06:15:04.076Z,54.68
2023-11-12T06:16:04.060Z,54.79
2023-11-12T06:17:04.077Z,56.26
2023-11-12T06:18:04.064Z,55.24
2023-11-12T06:19:04.052Z,53.70
2023-11-12T06:20:04.034Z,55.29
2023-11-12T06:21:04.048Z,54.14
2023-11-12T06:22:04.025Z,56.00
2023-11-12T06:23:04.018Z,57.00
2023-11-12T06:24:04.023Z,55.03
2023-11-12T06:25:04.012Z,52.88
2023-11-12T06:26:03.977Z,57.01
2023-11-12T06:27:04.001Z,52.87
2023-11-12T06:28:03.980Z,54.60
2023-11-12T06:29:03.984Z,54.82
2023-11-12T06:30:03.972Z,55.63
2023-11-12T06:31:03.972Z,52.69
2023-11-12T06:32:03.968Z,56.94
2023-11-12T06:33:04.103Z,56.44
2023-11-12T06:34:04.002Z,54.49
2023-11-12T06:35:03.933Z,53.60
2023-11-12T06:36:03.913Z,55.19
2023-11-12T06:37:03.944Z,54.96
2023-11-12T06:38:03.925Z,52.91
2023-11-12T06:39:03.920Z,49.60
2023-11-12T06:40:03.893Z,49.72
2023-11-12T06:41:03.912Z,54.51
2023-11-12T06:42:03.901Z,52.15
2023-11-12T06:43:03.909Z,53.78
2023-11-12T06:44:03.884Z,53.64
2023-11-12T06:45:03.881Z,52.95
2023-11-12T06:46:03.864Z,52.43
2023-11-12T06:47:03.899Z,55.07
2023-11-12T06:48:03.971Z,55.96
2023-11-12T06:49:03.852Z,52.30
2023-11-12T06:50:03.835Z,50.21
2023-11-12T06:51:03.866Z,55.97
2023-11-12T06:52:03.827Z,56.06
2023-11-12T06:53:03.850Z,50.16
2023-11-12T06:54:03.841Z,56.81
2023-11-12T06:55:03.835Z,55.59
2023-11-12T06:56:06.122Z,54.95
2023-11-12T06:57:03.809Z,53.91
2023-11-12T06:58:03.792Z,56.60
2023-11-12T06:59:03.819Z,54.31
2023-11-12T07:00:03.791Z,51.55
2023-11-12T07:01:03.821Z,51.98
2023-11-12T07:02:03.769Z,54.22
2023-11-12T07:03:03.858Z,53.01
2023-11-12T07:04:03.813Z,55.39
2023-11-12T07:05:03.756Z,53.14
2023-11-12T07:06:03.744Z,56.14
2023-11-12T07:07:09.878Z,52.50
2023-11-12T07:08:04.730Z,55.41
2023-11-12T07:09:03.742Z,55.50
2023-11-12T07:10:03.754Z,56.51
2023-11-12T07:11:03.756Z,56.43
2023-11-12T07:12:03.720Z,52.81
2023-11-12T07:13:03.714Z,57.53
2023-11-12T07:14:03.690Z,55.47
2023-11-12T07:15:03.704Z,54.99
2023-11-12T07:16:03.793Z,54.71
2023-11-12T07:17:03.726Z,54.09
2023-11-12T07:18:03.710Z,54.84
2023-11-12T07:19:03.772Z,52.04
2023-11-12T07:20:03.684Z,54.65
2023-11-12T07:21:03.692Z,55.64
2023-11-12T07:22:03.655Z,54.67
2023-11-12T07:23:03.682Z,55.19
2023-11-12T07:24:03.649Z,57.12
2023-11-12T07:25:03.662Z,55.18
2023-11-12T07:26:03.658Z,57.53
2023-11-12T07:27:03.638Z,54.56
2023-11-12T07:28:03.650Z,55.80
2023-11-12T07:29:03.689Z,59.88
2023-11-12T07:30:03.630Z,58.54
2023-11-12T07:31:03.659Z,57.70
2023-11-12T07:32:03.598Z,56.88
2023-11-12T07:33:03.606Z,56.70
2023-11-12T07:34:03.587Z,55.46
2023-11-12T07:35:03.605Z,56.56
2023-11-12T07:36:03.592Z,58.41
2023-11-12T07:37:03.592Z,55.39
2023-11-12T07:38:03.567Z,57.75
2023-11-12T07:39:03.585Z,56.39
2023-11-12T07:40:03.566Z,57.16
2023-11-12T07:41:03.570Z,57.63
2023-11-12T07:42:03.549Z,57.98
2023-11-12T07:43:03.571Z,58.07
2023-11-12T07:44:03.561Z,58.51
2023-11-12T07:45:10.364Z,57.12
2023-11-12T07:46:04.631Z,59.72
2023-11-12T07:47:03.551Z,57.94
2023-11-12T07:48:03.580Z,58.18
2023-11-12T07:49:03.518Z,57.61
2023-11-12T07:50:05.266Z,58.30
2023-11-12T07:51:03.521Z,56.50
2023-11-12T07:52:03.491Z,57.42
2023-11-12T07:53:03.498Z,57.15
2023-11-12T07:54:03.478Z,57.67
2023-11-12T07:55:03.503Z,57.47
2023-11-12T07:56:03.478Z,57.05
2023-11-12T07:57:03.480Z,57.22
2023-11-12T07:58:03.456Z,58.68
2023-11-12T07:59:03.469Z,60.75
2023-11-12T08:00:03.485Z,58.02
2023-11-12T08:01:03.502Z,59.78
2023-11-12T08:02:03.501Z,56.80
2023-11-12T08:03:03.475Z,57.28
2023-11-12T08:04:03.603Z,58.66
2023-11-12T08:05:03.432Z,56.32
2023-11-12T08:06:03.428Z,59.72
2023-11-12T08:07:03.450Z,60.15
2023-11-12T08:08:03.409Z,58.31
2023-11-12T08:09:03.422Z,57.67
2023-11-12T08:10:03.388Z,58.50
2023-11-12T08:11:03.418Z,58.71
2023-11-12T08:12:03.426Z,58.08
2023-11-12T08:13:03.411Z,58.10
2023-11-12T08:14:03.393Z,57.61
2023-11-12T08:15:03.381Z,58.26
2023-11-12T08:16:03.413Z,60.73
2023-11-12T08:17:03.376Z,57.71
2023-11-12T08:18:03.384Z,58.37
2023-11-12T08:19:03.427Z,60.12
2023-11-12T08:20:03.391Z,59.43
2023-11-12T08:21:03.375Z,59.09
2023-11-12T08:22:03.343Z,59.15
2023-11-12T08:23:03.363Z,62.24
2023-11-12T08:24:03.311Z,58.89
2023-11-12T08:25:03.336Z,58.46
2023-11-12T08:26:03.591Z,60.31
2023-11-12T08:27:03.312Z,59.00
2023-11-12T08:28:03.289Z,58.78
2023-11-12T08:29:03.326Z,58.58
2023-11-12T08:30:03.290Z,58.35
2023-11-12T08:31:03.283Z,59.45
2023-11-12T08:32:03.309Z,59.61
2023-11-12T08:33:03.362Z,58.75
2023-11-12T08:34:03.253Z,60.52
2023-11-12T08:35:03.294Z,59.20
2023-11-12T08:36:03.258Z,59.77
2023-11-12T08:37:03.307Z,58.19
2023-11-12T08:38:03.372Z,61.43
2023-11-12T08:39:03.242Z,60.38
2023-11-12T08:40:03.238Z,57.85
2023-11-12T08:41:03.228Z,60.00
2023-11-12T08:42:03.214Z,58.39
2023-11-12T08:43:03.230Z,60.57
2023-11-12T08:44:03.192Z,59.76
2023-11-12T08:45:03.238Z,59.25
2023-11-12T08:46:03.209Z,59.90
2023-11-12T08:47:03.191Z,59.37
2023-11-12T08:48:03.232Z,59.63
2023-11-12T08:49:03.170Z,59.64
2023-11-12T08:50:03.163Z,58.08
2023-11-12T08:51:03.187Z,57.20
2023-11-12T08:52:03.143Z,60.51
2023-11-12T08:53:04.111Z,58.95
2023-11-12T08:54:03.138Z,60.27
2023-11-12T08:55:03.146Z,59.70
2023-11-12T08:56:03.121Z,59.19
2023-11-12T08:57:06.860Z,57.75
2023-11-12T08:58:03.109Z,59.69
2023-11-12T08:59:03.123Z,56.47
2023-11-12T09:00:03.177Z,57.90
2023-11-12T09:01:03.109Z,58.28
2023-11-12T09:02:03.123Z,58.78
2023-11-12T09:03:03.147Z,57.92
2023-11-12T09:04:03.169Z,58.25
2023-11-12T09:05:03.261Z,58.46
2023-11-12T09:06:03.096Z,57.78
2023-11-12T09:07:03.116Z,58.52
2023-11-12T09:08:03.097Z,58.18
2023-11-12T09:09:03.076Z,59.29
2023-11-12T09:10:03.050Z,59.15
2023-11-12T09:11:03.063Z,58.36
2023-11-12T09:12:03.065Z,55.53
2023-11-12T09:13:03.044Z,58.11
2023-11-12T09:14:03.056Z,58.11
2023-11-12T09:15:03.053Z,59.20
2023-11-12T09:16:03.033Z,59.33
2023-11-12T09:17:03.075Z,56.76
2023-11-12T09:19:03.041Z,59.70
2023-11-12T09:20:02.994Z,60.58
2023-11-12T09:21:03.001Z,59.83
2023-11-12T09:22:03.010Z,60.25
2023-11-12T09:23:02.985Z,59.75
2023-11-12T09:24:02.987Z,58.98
2023-11-12T09:25:10.757Z,61.61
2023-11-12T09:26:04.045Z,60.99
2023-11-12T09:27:03.015Z,58.74
2023-11-12T09:28:02.967Z,60.33
2023-11-12T09:29:02.958Z,58.99
2023-11-12T09:30:02.927Z,60.88
2023-11-12T09:31:02.976Z,59.24
2023-11-12T09:32:02.964Z,59.96
2023-11-12T09:33:03.032Z,60.08
2023-11-12T09:34:02.980Z,61.43
2023-11-12T09:35:02.941Z,60.53
2023-11-12T09:36:02.899Z,58.94
2023-11-12T09:37:02.936Z,62.15
2023-11-12T09:38:02.892Z,59.91
2023-11-12T09:39:02.904Z,59.38
2023-11-12T09:40:02.890Z,58.83
2023-11-12T09:41:02.890Z,60.76
2023-11-12T09:42:02.876Z,58.54
2023-11-12T09:43:02.871Z,60.28
2023-11-12T09:44:02.851Z,60.04
2023-11-12T09:45:02.881Z,60.85
2023-11-12T09:46:02.850Z,59.90
2023-11-12T09:47:02.893Z,59.79
2023-11-12T09:48:02.868Z,59.58
2023-11-12T09:49:02.889Z,60.12
2023-11-12T09:50:02.820Z,60.07
2023-11-12T09:51:02.857Z,60.23
2023-11-12T09:52:02.799Z,61.02
2023-11-12T09:53:02.814Z,59.41
2023-11-12T09:54:02.806Z,61.04
2023-11-12T09:55:02.843Z,60.69
2023-11-12T09:56:02.778Z,59.29
2023-11-12T09:57:08.855Z,61.23
2023-11-12T09:58:03.783Z,58.64
2023-11-12T09:59:02.789Z,60.76
2023-11-12T10:00:05.120Z,61.11
2023-11-12T10:01:02.783Z,60.26
2023-11-12T10:02:02.905Z,60.82
2023-11-12T10:03:02.913Z,61.21
2023-11-12T10:04:02.896Z,61.38
2023-11-12T10:05:02.785Z,62.48
2023-11-12T10:06:04.486Z,59.80
2023-11-12T10:07:02.743Z,60.44
2023-11-12T10:08:02.726Z,60.72
2023-11-12T10:09:02.759Z,59.58
2023-11-12T10:10:02.704Z,60.28
2023-11-12T10:11:02.710Z,61.61
2023-11-12T10:12:02.688Z,61.52
2023-11-12T10:13:02.707Z,67.50
2023-11-12T10:14:02.699Z,61.04
2023-11-12T10:15:02.713Z,59.34
2023-11-12T10:16:02.814Z,60.49
2023-11-12T10:17:02.689Z,61.91
2023-11-12T10:18:04.439Z,61.94
2023-11-12T10:19:02.675Z,59.54
2023-11-12T10:20:02.682Z,61.76
2023-11-12T10:21:02.657Z,61.57
2023-11-12T10:22:02.717Z,59.69
2023-11-12T10:23:02.642Z,58.81
2023-11-12T10:24:02.634Z,60.96
2023-11-12T10:25:02.727Z,62.29
2023-11-12T10:26:02.648Z,60.27
2023-11-12T10:27:02.637Z,60.19
2023-11-12T10:28:02.600Z,60.26
2023-11-12T10:29:02.640Z,59.05
2023-11-12T10:30:02.593Z,59.70
2023-11-12T10:31:02.659Z,60.53
2023-11-12T10:32:02.632Z,59.94
2023-11-12T10:33:02.648Z,58.61
2023-11-12T10:34:02.660Z,61.86
2023-11-12T10:35:02.619Z,61.12
2023-11-12T10:36:02.559Z,63.31
2023-11-12T10:38:02.551Z,62.97
2023-11-12T10:39:02.562Z,59.08
2023-11-12T10:40:02.554Z,60.83
2023-11-12T10:41:02.569Z,60.53
2023-11-12T10:42:02.527Z,60.79
2023-11-12T10:43:02.583Z,60.78
2023-11-12T10:44:02.534Z,61.58
2023-11-12T10:45:02.530Z,59.86
2023-11-12T10:46:02.647Z,60.79
2023-11-12T10:47:02.519Z,61.71
2023-11-12T10:48:02.532Z,61.53
2023-11-12T10:49:02.560Z,62.84
2023-11-12T10:50:02.482Z,63.57
2023-11-12T10:51:02.530Z,64.24
2023-11-12T10:52:02.482Z,63.69
2023-11-12T10:53:02.492Z,62.81
2023-11-12T10:54:02.482Z,61.93
2023-11-12T10:55:02.497Z,60.73
2023-11-12T10:56:02.472Z,66.96
2023-11-12T10:57:02.471Z,64.00
2023-11-12T10:58:02.490Z,61.11
2023-11-12T10:59:02.472Z,60.08
2023-11-12T11:00:02.425Z,60.57
2023-11-12T11:01:02.745Z,61.34
2023-11-12T11:02:02.409Z,61.08
2023-11-12T11:03:02.502Z,61.44
2023-11-12T11:04:02.485Z,60.92
2023-11-12T11:05:02.409Z,61.38
2023-11-12T11:06:02.409Z,60.65
2023-11-12T11:07:02.418Z,63.26
2023-11-12T11:08:02.389Z,62.61
2023-11-12T11:09:02.420Z,60.71
2023-11-12T11:10:02.428Z,61.07
2023-11-12T11:11:02.385Z,61.89
2023-11-12T11:12:09.377Z,60.48
2023-11-12T11:13:02.430Z,61.40
2023-11-12T11:14:02.350Z,60.60
2023-11-12T11:15:02.406Z,61.74
2023-11-12T11:16:02.394Z,61.84
2023-11-12T11:17:02.446Z,60.72
2023-11-12T11:18:02.372Z,61.03
2023-11-12T11:19:02.406Z,61.35
2023-11-12T11:20:02.339Z,62.83
2023-11-12T11:21:02.359Z,62.79
2023-11-12T11:22:02.314Z,60.97
2023-11-12T11:23:02.328Z,61.89
2023-11-12T11:24:02.318Z,64.15
2023-11-12T11:25:02.327Z,62.12
2023-11-12T11:26:02.318Z,62.15
2023-11-12T11:27:02.290Z,63.17
2023-11-12T11:28:02.365Z,61.81
2023-11-12T11:29:02.299Z,62.13
2023-11-12T11:30:02.264Z,60.56
2023-11-12T11:31:02.282Z,62.86
2023-11-12T11:32:02.303Z,62.12
2023-11-12T11:33:02.342Z,60.34
2023-11-12T11:34:02.321Z,61.45
2023-11-12T11:35:02.256Z,61.74
2023-11-12T11:36:02.234Z,61.01
2023-11-12T11:37:02.393Z,61.59
2023-11-12T11:38:02.250Z,59.44
2023-11-12T11:39:02.232Z,61.78
2023-11-12T11:40:02.217Z,61.70
2023-11-12T11:41:02.213Z,61.37
2023-11-12T11:42:02.194Z,61.01
2023-11-12T11:43:02.238Z,59.77
2023-11-12T11:44:02.217Z,61.89
2023-11-12T11:45:02.195Z,60.52
2023-11-12T11:46:02.206Z,58.93
2023-11-12T11:47:02.177Z,60.80
2023-11-12T11:48:02.165Z,60.80
2023-11-12T11:49:02.188Z,60.61
2023-11-12T11:50:02.154Z,59.69
2023-11-12T11:51:03.989Z,60.41
2023-11-12T11:52:02.263Z,60.83
2023-11-12T11:53:02.142Z,63.04
2023-11-12T11:54:02.135Z,61.22
2023-11-12T11:55:02.159Z,59.89
2023-11-12T11:56:02.120Z,60.57
2023-11-12T11:57:02.126Z,60.89
2023-11-12T11:58:02.166Z,61.75
2023-11-12T11:59:02.101Z,62.93
2023-11-12T12:00:02.150Z,59.30
2023-11-12T12:01:02.203Z,60.49
2023-11-12T12:02:02.155Z,62.06
2023-11-12T12:03:02.106Z,60.12
2023-11-12T12:04:02.156Z,61.29
2023-11-12T12:05:02.135Z,62.48
2023-11-12T12:06:02.033Z,61.63
2023-11-12T12:07:02.100Z,60.73
2023-11-12T12:08:02.063Z,61.73
2023-11-12T12:09:02.052Z,61.92
2023-11-12T12:10:02.413Z,63.25
2023-11-12T12:11:02.026Z,63.77
2023-11-12T12:12:02.018Z,61.18
2023-11-12T12:13:02.089Z,61.21
2023-11-12T12:14:02.009Z,61.64
2023-11-12T12:15:02.016Z,60.69
2023-11-12T12:16:02.056Z,62.04
2023-11-12T12:17:02.027Z,62.12
2023-11-12T12:18:02.062Z,62.49
2023-11-12T12:19:02.016Z,60.29
2023-11-12T12:20:12.174Z,61.71
2023-11-12T12:21:05.933Z,61.34
2023-11-12T12:22:03.706Z,61.86
2023-11-12T12:23:02.229Z,60.43
2023-11-12T12:24:01.932Z,60.92
2023-11-12T12:25:02.014Z,61.41
2023-11-12T12:26:01.954Z,60.05
2023-11-12T12:27:01.937Z,60.77
2023-11-12T12:28:01.954Z,59.02
2023-11-12T12:29:01.915Z,60.02
2023-11-12T12:30:01.957Z,60.46
2023-11-12T12:31:02.023Z,61.02
2023-11-12T12:32:01.907Z,61.93
2023-11-12T12:33:01.896Z,59.73
2023-11-12T12:34:01.937Z,61.58
2023-11-12T12:35:02.251Z,60.31
2023-11-12T12:36:01.886Z,59.34
2023-11-12T12:37:01.973Z,60.08
2023-11-12T12:38:01.920Z,58.63
2023-11-12T12:39:01.853Z,59.04
2023-11-12T12:40:02.628Z,60.70
2023-11-12T12:41:01.844Z,61.92
2023-11-12T12:42:01.825Z,59.32
2023-11-12T12:43:01.880Z,59.78
2023-11-12T12:44:01.818Z,59.86
2023-11-12T12:45:01.858Z,61.59
2023-11-12T12:46:01.919Z,60.34
2023-11-12T12:47:01.842Z,60.32
2023-11-12T12:48:01.848Z,62.26
2023-11-12T12:49:01.832Z,59.98
2023-11-12T12:50:01.777Z,60.50
2023-11-12T12:51:01.786Z,60.23
2023-11-12T12:52:01.937Z,60.10
2023-11-12T12:53:01.812Z,61.34
2023-11-12T12:54:01.748Z,61.51